Dati Storici

Data ora Umidita' aria (%) Temperatura aria (°C) Rad globale (W/m²) Gonioanemometro (°) Tacoanemometro (m/s) Pioggia (mm)
06-11-2012 08:50 74.7 % 8.84 93.095 34.877 0.563 0
06-11-2012 08:40 74.7 % 8.641 71.312 14.951 1.178 0
06-11-2012 08:30 74.7 % 8.59 50.361 354.373 0.374 0
06-11-2012 08:20 74.9 % 8.467 26.219 292.926 1.012 0
06-11-2012 08:10 76 % 8.045 10.886 290.898 0.167 0
06-11-2012 08:00 75.6 % 8.155 5.151 185.712 0.241 0
06-11-2012 07:50 75.5 % 8.288 3.69 4.86 1.087 0
06-11-2012 07:40 75.4 % 8.181 2.548 337.41 1.536 0
06-11-2012 07:30 75.4 % 8.163 2.574 345.01 1.436 0
06-11-2012 07:20 75.7 % 8.133 2.442 348.211 1.261 0
06-11-2012 07:10 76 % 7.985 2.172 336.015 0.867 0
06-11-2012 07:00 75.6 % 7.979 2.288 4.585 1.329 0
06-11-2012 06:50 75.3 % 8.058 2.429 13.313 1.424 0
06-11-2012 06:40 75.7 % 7.943 2.36 11.728 2.224 0
06-11-2012 06:30 75.9 % 7.892 2.643 5.742 1.586 0
06-11-2012 06:20 75.9 % 7.866 2.553 8.19 2.194 0
06-11-2012 06:10 75.8 % 7.935 2.502 1.941 1.818 0
06-11-2012 06:00 75.9 % 7.876 2.4 40.334 0.939 0
06-11-2012 05:50 75.7 % 7.964 2.618 327.446 0.906 0
06-11-2012 05:40 75.6 % 7.985 2.433 6.375 2.02 0

I dati sono presentati in modo automatico a scopo informativo. In seguito a verifica i dati possono subire modifiche o essere invalidati e non riportati negli archivi definitivi.